Watton, United Kingdom
Current Conditions -  °F | °C
As of 3:50 AM on Monday 22 Dec 2014 (Local Time) from EGXV Reporting Station
Overcast Overcast  
Wind Chill: 57°   Ceiling: 2300
Heat Index: 57°   Visibility: 6mi
Dew Point: 48°   Wind: 22mph
Humidity: 72%   Direction: 230°SW
Pressure: 29.74"   Gusts: 36mph
Location:  53.93°N, 0.45°W
Report Text: EGXV 220350Z AUTO 23019G31KT 9999 OVC023/// 14/09 Q1007
Loading
Personal Weather Stations






























Interactive Weather Map New forecast layout! Learn more

10-Day Weather Forecast

Advertisements
Track Severe Weather on mobile